sensor_id;sensor_type;location;lat;lon;timestamp;temperature;humidity
12827;DHT22;66927;48.812;9.118;2024-01-30T00:02:17;7.10;99.90
12827;DHT22;66927;48.812;9.118;2024-01-30T00:04:42;7.10;99.90
12827;DHT22;66927;48.812;9.118;2024-01-30T00:07:08;7.10;99.90
12827;DHT22;66927;48.812;9.118;2024-01-30T00:09:33;7.10;99.90
12827;DHT22;66927;48.812;9.118;2024-01-30T00:11:59;7.10;99.90
12827;DHT22;66927;48.812;9.118;2024-01-30T00:14:25;7.00;99.90
12827;DHT22;66927;48.812;9.118;2024-01-30T00:16:52;7.00;99.90
12827;DHT22;66927;48.812;9.118;2024-01-30T00:19:17;7.00;99.90
12827;DHT22;66927;48.812;9.118;2024-01-30T00:21:43;7.00;99.90
12827;DHT22;66927;48.812;9.118;2024-01-30T00:24:09;7.00;99.90
12827;DHT22;66927;48.812;9.118;2024-01-30T00:26:38;7.00;99.90
12827;DHT22;66927;48.812;9.118;2024-01-30T00:29:04;6.90;99.90
12827;DHT22;66927;48.812;9.118;2024-01-30T00:31:29;7.00;99.90
12827;DHT22;66927;48.812;9.118;2024-01-30T00:33:55;6.90;99.90
12827;DHT22;66927;48.812;9.118;2024-01-30T00:36:21;6.90;99.90
12827;DHT22;66927;48.812;9.118;2024-01-30T00:38:47;6.90;99.90
12827;DHT22;66927;48.812;9.118;2024-01-30T00:41:12;6.80;99.90
12827;DHT22;66927;48.812;9.118;2024-01-30T00:43:38;6.90;99.90
12827;DHT22;66927;48.812;9.118;2024-01-30T00:46:04;6.90;99.90
12827;DHT22;66927;48.812;9.118;2024-01-30T00:48:30;6.90;99.90
12827;DHT22;66927;48.812;9.118;2024-01-30T00:50:55;6.80;99.90
12827;DHT22;66927;48.812;9.118;2024-01-30T00:53:21;6.80;99.90
12827;DHT22;66927;48.812;9.118;2024-01-30T00:55:47;6.80;99.90
12827;DHT22;66927;48.812;9.118;2024-01-30T00:58:12;6.80;99.90
12827;DHT22;66927;48.812;9.118;2024-01-30T01:00:39;6.80;99.90
12827;DHT22;66927;48.812;9.118;2024-01-30T01:03:04;6.80;99.90
12827;DHT22;66927;48.812;9.118;2024-01-30T01:05:30;6.80;99.90
12827;DHT22;66927;48.812;9.118;2024-01-30T01:07:56;6.70;99.90
12827;DHT22;66927;48.812;9.118;2024-01-30T01:10:21;6.80;99.90
12827;DHT22;66927;48.812;9.118;2024-01-30T01:12:48;6.80;99.90
12827;DHT22;66927;48.812;9.118;2024-01-30T01:15:13;6.90;99.90
12827;DHT22;66927;48.812;9.118;2024-01-30T01:17:39;6.90;99.90
12827;DHT22;66927;48.812;9.118;2024-01-30T01:20:06;6.90;99.90
12827;DHT22;66927;48.812;9.118;2024-01-30T01:22:34;6.90;99.90
12827;DHT22;66927;48.812;9.118;2024-01-30T01:25:00;6.90;99.90
12827;DHT22;66927;48.812;9.118;2024-01-30T01:27:26;6.90;99.90
12827;DHT22;66927;48.812;9.118;2024-01-30T01:29:53;6.80;99.90
12827;DHT22;66927;48.812;9.118;2024-01-30T01:32:19;6.80;99.90
12827;DHT22;66927;48.812;9.118;2024-01-30T01:34:44;6.70;99.90
12827;DHT22;66927;48.812;9.118;2024-01-30T01:37:10;6.70;99.90
12827;DHT22;66927;48.812;9.118;2024-01-30T01:39:36;6.70;99.90
12827;DHT22;66927;48.812;9.118;2024-01-30T01:42:03;6.70;99.90
12827;DHT22;66927;48.812;9.118;2024-01-30T01:44:29;6.70;99.90
12827;DHT22;66927;48.812;9.118;2024-01-30T01:46:56;6.70;99.90
12827;DHT22;66927;48.812;9.118;2024-01-30T01:49:27;6.60;99.90
12827;DHT22;66927;48.812;9.118;2024-01-30T01:51:55;6.60;99.90
12827;DHT22;66927;48.812;9.118;2024-01-30T01:54:22;6.60;99.90
12827;DHT22;66927;48.812;9.118;2024-01-30T01:56:55;6.60;99.90
12827;DHT22;66927;48.812;9.118;2024-01-30T01:59:21;6.60;99.90
12827;DHT22;66927;48.812;9.118;2024-01-30T02:01:47;6.60;99.90
12827;DHT22;66927;48.812;9.118;2024-01-30T02:04:16;6.60;99.90
12827;DHT22;66927;48.812;9.118;2024-01-30T02:06:44;6.50;99.90
12827;DHT22;66927;48.812;9.118;2024-01-30T02:09:09;6.50;99.90
12827;DHT22;66927;48.812;9.118;2024-01-30T02:11:35;6.50;99.90
12827;DHT22;66927;48.812;9.118;2024-01-30T02:14:04;6.50;99.90
12827;DHT22;66927;48.812;9.118;2024-01-30T02:16:31;6.50;99.90
12827;DHT22;66927;48.812;9.118;2024-01-30T02:18:57;6.50;99.90
12827;DHT22;66927;48.812;9.118;2024-01-30T02:21:22;6.50;99.90
12827;DHT22;66927;48.812;9.118;2024-01-30T02:23:48;6.50;99.90
12827;DHT22;66927;48.812;9.118;2024-01-30T02:26:15;6.50;99.90
12827;DHT22;66927;48.812;9.118;2024-01-30T02:28:40;6.50;99.90
12827;DHT22;66927;48.812;9.118;2024-01-30T02:31:06;6.40;99.90
12827;DHT22;66927;48.812;9.118;2024-01-30T02:33:32;6.50;99.90
12827;DHT22;66927;48.812;9.118;2024-01-30T02:35:57;6.40;99.90
12827;DHT22;66927;48.812;9.118;2024-01-30T02:38:24;6.40;99.90
12827;DHT22;66927;48.812;9.118;2024-01-30T02:40:50;6.40;99.90
12827;DHT22;66927;48.812;9.118;2024-01-30T02:43:16;6.40;99.90
12827;DHT22;66927;48.812;9.118;2024-01-30T02:45:42;6.40;99.90
12827;DHT22;66927;48.812;9.118;2024-01-30T02:48:08;6.30;99.90
12827;DHT22;66927;48.812;9.118;2024-01-30T02:50:34;6.30;99.90
12827;DHT22;66927;48.812;9.118;2024-01-30T02:52:59;6.20;99.90
12827;DHT22;66927;48.812;9.118;2024-01-30T02:55:25;6.20;99.90
12827;DHT22;66927;48.812;9.118;2024-01-30T02:57:51;6.20;99.90
12827;DHT22;66927;48.812;9.118;2024-01-30T03:00:16;6.10;99.90
12827;DHT22;66927;48.812;9.118;2024-01-30T03:02:42;6.10;99.90
12827;DHT22;66927;48.812;9.118;2024-01-30T03:05:08;6.10;99.90
12827;DHT22;66927;48.812;9.118;2024-01-30T03:07:34;6.10;99.90
12827;DHT22;66927;48.812;9.118;2024-01-30T03:10:00;6.10;99.90
12827;DHT22;66927;48.812;9.118;2024-01-30T03:12:26;6.00;99.90
12827;DHT22;66927;48.812;9.118;2024-01-30T03:14:51;6.00;99.90
12827;DHT22;66927;48.812;9.118;2024-01-30T03:17:17;6.00;99.90
12827;DHT22;66927;48.812;9.118;2024-01-30T03:19:43;5.90;99.90
12827;DHT22;66927;48.812;9.118;2024-01-30T03:22:09;5.90;99.90
12827;DHT22;66927;48.812;9.118;2024-01-30T03:24:34;5.90;99.90
12827;DHT22;66927;48.812;9.118;2024-01-30T03:27:00;5.90;99.90
12827;DHT22;66927;48.812;9.118;2024-01-30T03:29:26;5.90;99.90
12827;DHT22;66927;48.812;9.118;2024-01-30T03:31:52;5.90;99.90
12827;DHT22;66927;48.812;9.118;2024-01-30T03:34:17;5.90;99.90
12827;DHT22;66927;48.812;9.118;2024-01-30T03:36:43;5.90;99.90
12827;DHT22;66927;48.812;9.118;2024-01-30T03:39:09;5.90;99.90
12827;DHT22;66927;48.812;9.118;2024-01-30T03:41:34;5.90;99.90
12827;DHT22;66927;48.812;9.118;2024-01-30T03:44:00;5.90;99.90
12827;DHT22;66927;48.812;9.118;2024-01-30T03:46:25;5.90;99.90
12827;DHT22;66927;48.812;9.118;2024-01-30T03:48:51;5.90;99.90
12827;DHT22;66927;48.812;9.118;2024-01-30T03:51:17;5.90;99.90
12827;DHT22;66927;48.812;9.118;2024-01-30T03:53:43;5.90;99.90
12827;DHT22;66927;48.812;9.118;2024-01-30T03:56:09;5.80;99.90
12827;DHT22;66927;48.812;9.118;2024-01-30T03:58:35;5.80;99.90
12827;DHT22;66927;48.812;9.118;2024-01-30T04:01:01;5.70;99.90
12827;DHT22;66927;48.812;9.118;2024-01-30T04:03:27;5.70;99.90
12827;DHT22;66927;48.812;9.118;2024-01-30T04:05:53;5.80;99.90
12827;DHT22;66927;48.812;9.118;2024-01-30T04:08:19;5.70;99.90
12827;DHT22;66927;48.812;9.118;2024-01-30T04:10:45;5.70;99.90
12827;DHT22;66927;48.812;9.118;2024-01-30T04:13:10;5.70;99.90
12827;DHT22;66927;48.812;9.118;2024-01-30T04:15:36;5.70;99.90
12827;DHT22;66927;48.812;9.118;2024-01-30T04:18:02;5.70;99.90
12827;DHT22;66927;48.812;9.118;2024-01-30T04:20:28;5.70;99.90
12827;DHT22;66927;48.812;9.118;2024-01-30T04:22:54;5.70;99.90
12827;DHT22;66927;48.812;9.118;2024-01-30T04:25:20;5.60;99.90
12827;DHT22;66927;48.812;9.118;2024-01-30T04:27:45;5.60;99.90
12827;DHT22;66927;48.812;9.118;2024-01-30T04:30:11;5.60;99.90
12827;DHT22;66927;48.812;9.118;2024-01-30T04:32:37;5.60;99.90
12827;DHT22;66927;48.812;9.118;2024-01-30T04:35:03;5.60;99.90
12827;DHT22;66927;48.812;9.118;2024-01-30T04:37:29;5.60;99.90
12827;DHT22;66927;48.812;9.118;2024-01-30T04:39:55;5.60;99.90
12827;DHT22;66927;48.812;9.118;2024-01-30T04:42:20;5.60;99.90
12827;DHT22;66927;48.812;9.118;2024-01-30T04:44:46;5.70;99.90
12827;DHT22;66927;48.812;9.118;2024-01-30T04:47:12;5.70;99.90
12827;DHT22;66927;48.812;9.118;2024-01-30T04:49:41;5.70;99.90
12827;DHT22;66927;48.812;9.118;2024-01-30T04:52:07;5.60;99.90
12827;DHT22;66927;48.812;9.118;2024-01-30T04:54:33;5.60;99.90
12827;DHT22;66927;48.812;9.118;2024-01-30T04:57:00;5.50;99.90
12827;DHT22;66927;48.812;9.118;2024-01-30T04:59:25;5.50;99.90
12827;DHT22;66927;48.812;9.118;2024-01-30T05:01:51;5.50;99.90
12827;DHT22;66927;48.812;9.118;2024-01-30T05:04:17;5.50;99.90
12827;DHT22;66927;48.812;9.118;2024-01-30T05:06:42;5.60;99.90
12827;DHT22;66927;48.812;9.118;2024-01-30T05:09:08;5.60;99.90
12827;DHT22;66927;48.812;9.118;2024-01-30T05:11:41;5.60;99.90
12827;DHT22;66927;48.812;9.118;2024-01-30T05:14:07;5.60;99.90
12827;DHT22;66927;48.812;9.118;2024-01-30T05:16:34;5.50;99.90
12827;DHT22;66927;48.812;9.118;2024-01-30T05:18:59;5.50;99.90
12827;DHT22;66927;48.812;9.118;2024-01-30T05:21:25;5.40;99.90
12827;DHT22;66927;48.812;9.118;2024-01-30T05:23:51;5.50;99.90
12827;DHT22;66927;48.812;9.118;2024-01-30T05:26:16;5.50;99.90
12827;DHT22;66927;48.812;9.118;2024-01-30T05:28:42;5.40;99.90
12827;DHT22;66927;48.812;9.118;2024-01-30T05:31:10;5.40;99.90
12827;DHT22;66927;48.812;9.118;2024-01-30T05:33:36;5.40;99.90
12827;DHT22;66927;48.812;9.118;2024-01-30T05:36:02;5.30;99.90
12827;DHT22;66927;48.812;9.118;2024-01-30T05:38:30;5.30;99.90
12827;DHT22;66927;48.812;9.118;2024-01-30T05:40:57;5.30;99.90
12827;DHT22;66927;48.812;9.118;2024-01-30T05:43:25;5.40;99.90
12827;DHT22;66927;48.812;9.118;2024-01-30T05:45:51;5.30;99.90
12827;DHT22;66927;48.812;9.118;2024-01-30T05:48:17;5.30;99.90
12827;DHT22;66927;48.812;9.118;2024-01-30T05:50:44;5.30;99.90
12827;DHT22;66927;48.812;9.118;2024-01-30T05:53:11;5.30;99.90
12827;DHT22;66927;48.812;9.118;2024-01-30T05:55:37;5.30;99.90
12827;DHT22;66927;48.812;9.118;2024-01-30T05:58:03;5.20;99.90
12827;DHT22;66927;48.812;9.118;2024-01-30T06:00:29;5.20;99.90
12827;DHT22;66927;48.812;9.118;2024-01-30T06:02:55;5.10;99.90
12827;DHT22;66927;48.812;9.118;2024-01-30T06:05:21;5.10;99.90
12827;DHT22;66927;48.812;9.118;2024-01-30T06:07:46;5.10;99.90
12827;DHT22;66927;48.812;9.118;2024-01-30T06:10:12;5.10;99.90
12827;DHT22;66927;48.812;9.118;2024-01-30T06:12:38;5.10;99.90
12827;DHT22;66927;48.812;9.118;2024-01-30T06:15:04;5.10;99.90
12827;DHT22;66927;48.812;9.118;2024-01-30T06:17:29;5.10;99.90
12827;DHT22;66927;48.812;9.118;2024-01-30T06:19:55;5.10;99.90
12827;DHT22;66927;48.812;9.118;2024-01-30T06:22:21;5.20;99.90
12827;DHT22;66927;48.812;9.118;2024-01-30T06:24:46;5.20;99.90
12827;DHT22;66927;48.812;9.118;2024-01-30T06:27:14;5.10;99.90
12827;DHT22;66927;48.812;9.118;2024-01-30T06:29:40;5.20;99.90
12827;DHT22;66927;48.812;9.118;2024-01-30T06:32:07;5.10;99.90
12827;DHT22;66927;48.812;9.118;2024-01-30T06:34:33;5.10;99.90
12827;DHT22;66927;48.812;9.118;2024-01-30T06:36:59;5.10;99.90
12827;DHT22;66927;48.812;9.118;2024-01-30T06:39:24;5.20;99.90
12827;DHT22;66927;48.812;9.118;2024-01-30T06:41:50;5.20;99.90
12827;DHT22;66927;48.812;9.118;2024-01-30T06:44:16;5.20;99.90
12827;DHT22;66927;48.812;9.118;2024-01-30T06:46:41;5.10;99.90
12827;DHT22;66927;48.812;9.118;2024-01-30T06:49:07;5.10;99.90
12827;DHT22;66927;48.812;9.118;2024-01-30T06:51:33;5.10;99.90
12827;DHT22;66927;48.812;9.118;2024-01-30T06:53:58;5.10;99.90
12827;DHT22;66927;48.812;9.118;2024-01-30T06:56:24;5.10;99.90
12827;DHT22;66927;48.812;9.118;2024-01-30T06:58:50;5.00;99.90
12827;DHT22;66927;48.812;9.118;2024-01-30T07:01:17;5.00;99.90
12827;DHT22;66927;48.812;9.118;2024-01-30T07:03:43;4.90;99.90
12827;DHT22;66927;48.812;9.118;2024-01-30T07:06:09;4.90;99.90
12827;DHT22;66927;48.812;9.118;2024-01-30T07:08:36;4.90;99.90
12827;DHT22;66927;48.812;9.118;2024-01-30T07:11:07;5.00;99.90
12827;DHT22;66927;48.812;9.118;2024-01-30T07:13:33;5.00;99.90
12827;DHT22;66927;48.812;9.118;2024-01-30T07:15:59;5.00;99.90
12827;DHT22;66927;48.812;9.118;2024-01-30T07:18:25;5.00;99.90
12827;DHT22;66927;48.812;9.118;2024-01-30T07:20:53;5.10;99.90
12827;DHT22;66927;48.812;9.118;2024-01-30T07:23:18;5.10;99.90
12827;DHT22;66927;48.812;9.118;2024-01-30T07:25:44;5.10;99.90
12827;DHT22;66927;48.812;9.118;2024-01-30T07:28:10;5.10;99.90
12827;DHT22;66927;48.812;9.118;2024-01-30T07:30:37;5.10;99.90
12827;DHT22;66927;48.812;9.118;2024-01-30T07:33:04;5.00;99.90
12827;DHT22;66927;48.812;9.118;2024-01-30T07:35:30;5.00;99.90
12827;DHT22;66927;48.812;9.118;2024-01-30T07:37:55;5.10;99.90
12827;DHT22;66927;48.812;9.118;2024-01-30T07:40:22;5.20;99.90
12827;DHT22;66927;48.812;9.118;2024-01-30T07:42:48;5.20;99.90
12827;DHT22;66927;48.812;9.118;2024-01-30T07:45:14;5.20;99.90
12827;DHT22;66927;48.812;9.118;2024-01-30T07:47:40;5.20;99.90
12827;DHT22;66927;48.812;9.118;2024-01-30T07:50:06;5.20;99.90
12827;DHT22;66927;48.812;9.118;2024-01-30T07:52:32;5.20;99.90
12827;DHT22;66927;48.812;9.118;2024-01-30T07:54:57;5.20;99.90
12827;DHT22;66927;48.812;9.118;2024-01-30T07:57:23;5.20;99.90
12827;DHT22;66927;48.812;9.118;2024-01-30T07:59:49;5.30;99.90
12827;DHT22;66927;48.812;9.118;2024-01-30T08:02:14;5.30;99.90
12827;DHT22;66927;48.812;9.118;2024-01-30T08:04:40;5.40;99.90
12827;DHT22;66927;48.812;9.118;2024-01-30T08:07:06;5.50;99.90
12827;DHT22;66927;48.812;9.118;2024-01-30T08:09:32;5.50;99.90
12827;DHT22;66927;48.812;9.118;2024-01-30T08:11:57;5.50;99.90
12827;DHT22;66927;48.812;9.118;2024-01-30T08:14:23;5.50;99.90
12827;DHT22;66927;48.812;9.118;2024-01-30T08:16:49;5.60;99.90
12827;DHT22;66927;48.812;9.118;2024-01-30T08:19:15;5.60;99.90
12827;DHT22;66927;48.812;9.118;2024-01-30T08:21:40;5.60;99.90
12827;DHT22;66927;48.812;9.118;2024-01-30T08:24:07;5.60;99.90
12827;DHT22;66927;48.812;9.118;2024-01-30T08:26:32;5.70;99.90
12827;DHT22;66927;48.812;9.118;2024-01-30T08:28:58;5.80;99.90
12827;DHT22;66927;48.812;9.118;2024-01-30T08:31:24;5.80;99.90
12827;DHT22;66927;48.812;9.118;2024-01-30T08:33:50;5.80;99.90
12827;DHT22;66927;48.812;9.118;2024-01-30T08:36:16;5.90;99.90
12827;DHT22;66927;48.812;9.118;2024-01-30T08:38:42;5.90;99.90
12827;DHT22;66927;48.812;9.118;2024-01-30T08:41:08;5.90;99.90
12827;DHT22;66927;48.812;9.118;2024-01-30T08:43:33;5.90;99.90
12827;DHT22;66927;48.812;9.118;2024-01-30T08:46:00;6.00;99.90
12827;DHT22;66927;48.812;9.118;2024-01-30T08:48:26;6.10;99.90
12827;DHT22;66927;48.812;9.118;2024-01-30T08:50:52;6.10;99.90
12827;DHT22;66927;48.812;9.118;2024-01-30T08:53:17;6.20;99.90
12827;DHT22;66927;48.812;9.118;2024-01-30T08:55:44;6.20;99.90
12827;DHT22;66927;48.812;9.118;2024-01-30T08:58:09;6.30;99.90
12827;DHT22;66927;48.812;9.118;2024-01-30T09:00:35;6.30;99.90
12827;DHT22;66927;48.812;9.118;2024-01-30T09:03:00;6.30;99.90
12827;DHT22;66927;48.812;9.118;2024-01-30T09:05:26;6.40;99.90
12827;DHT22;66927;48.812;9.118;2024-01-30T09:07:52;6.40;99.90
12827;DHT22;66927;48.812;9.118;2024-01-30T09:10:17;6.40;99.90
12827;DHT22;66927;48.812;9.118;2024-01-30T09:12:44;6.40;99.90
12827;DHT22;66927;48.812;9.118;2024-01-30T09:15:10;6.50;99.90
12827;DHT22;66927;48.812;9.118;2024-01-30T09:17:35;6.50;99.90
12827;DHT22;66927;48.812;9.118;2024-01-30T09:20:01;6.50;99.90
12827;DHT22;66927;48.812;9.118;2024-01-30T09:22:27;6.60;99.90
12827;DHT22;66927;48.812;9.118;2024-01-30T09:24:53;6.70;99.90
12827;DHT22;66927;48.812;9.118;2024-01-30T09:27:18;6.70;99.90
12827;DHT22;66927;48.812;9.118;2024-01-30T09:29:44;6.80;99.90
12827;DHT22;66927;48.812;9.118;2024-01-30T09:32:09;6.90;99.90
12827;DHT22;66927;48.812;9.118;2024-01-30T09:34:35;6.90;99.90
12827;DHT22;66927;48.812;9.118;2024-01-30T09:37:01;7.00;99.90
12827;DHT22;66927;48.812;9.118;2024-01-30T09:39:27;7.00;99.90
12827;DHT22;66927;48.812;9.118;2024-01-30T09:42:02;7.10;99.90
12827;DHT22;66927;48.812;9.118;2024-01-30T09:44:30;7.20;99.90
12827;DHT22;66927;48.812;9.118;2024-01-30T09:46:56;7.20;99.90
12827;DHT22;66927;48.812;9.118;2024-01-30T09:49:30;7.20;99.90
12827;DHT22;66927;48.812;9.118;2024-01-30T09:51:56;7.20;99.90
12827;DHT22;66927;48.812;9.118;2024-01-30T09:54:23;7.30;99.90
12827;DHT22;66927;48.812;9.118;2024-01-30T09:56:49;7.30;99.90
12827;DHT22;66927;48.812;9.118;2024-01-30T09:59:15;7.40;99.90
12827;DHT22;66927;48.812;9.118;2024-01-30T10:01:41;7.40;99.90
12827;DHT22;66927;48.812;9.118;2024-01-30T10:04:07;7.50;99.90
12827;DHT22;66927;48.812;9.118;2024-01-30T10:06:34;7.50;99.90
12827;DHT22;66927;48.812;9.118;2024-01-30T10:09:00;7.60;99.90
12827;DHT22;66927;48.812;9.118;2024-01-30T10:11:25;7.60;99.90
12827;DHT22;66927;48.812;9.118;2024-01-30T10:13:52;7.60;99.90
12827;DHT22;66927;48.812;9.118;2024-01-30T10:16:18;7.60;99.90
12827;DHT22;66927;48.812;9.118;2024-01-30T10:18:44;7.70;99.90
12827;DHT22;66927;48.812;9.118;2024-01-30T10:21:09;7.70;99.90
12827;DHT22;66927;48.812;9.118;2024-01-30T10:23:36;7.70;99.90
12827;DHT22;66927;48.812;9.118;2024-01-30T10:26:07;7.70;99.90
12827;DHT22;66927;48.812;9.118;2024-01-30T10:28:33;7.80;99.90
12827;DHT22;66927;48.812;9.118;2024-01-30T10:31:02;7.80;99.90
12827;DHT22;66927;48.812;9.118;2024-01-30T10:33:31;7.80;99.90
12827;DHT22;66927;48.812;9.118;2024-01-30T10:36:00;7.80;99.90
12827;DHT22;66927;48.812;9.118;2024-01-30T10:38:29;7.90;99.90
12827;DHT22;66927;48.812;9.118;2024-01-30T10:41:01;7.90;99.90
12827;DHT22;66927;48.812;9.118;2024-01-30T10:43:32;7.90;99.90
12827;DHT22;66927;48.812;9.118;2024-01-30T10:46:16;8.00;99.90
12827;DHT22;66927;48.812;9.118;2024-01-30T10:48:43;8.00;99.90
12827;DHT22;66927;48.812;9.118;2024-01-30T10:51:13;8.00;99.90
12827;DHT22;66927;48.812;9.118;2024-01-30T10:53:39;8.00;99.90
12827;DHT22;66927;48.812;9.118;2024-01-30T10:56:08;8.10;99.90
12827;DHT22;66927;48.812;9.118;2024-01-30T10:58:35;8.10;99.90
12827;DHT22;66927;48.812;9.118;2024-01-30T11:01:01;8.10;99.90
12827;DHT22;66927;48.812;9.118;2024-01-30T11:03:27;8.20;99.90
12827;DHT22;66927;48.812;9.118;2024-01-30T11:05:53;8.20;99.90
12827;DHT22;66927;48.812;9.118;2024-01-30T11:08:24;8.20;99.90
12827;DHT22;66927;48.812;9.118;2024-01-30T11:10:57;8.20;99.90
12827;DHT22;66927;48.812;9.118;2024-01-30T11:13:30;8.30;99.90
12827;DHT22;66927;48.812;9.118;2024-01-30T11:16:06;8.30;99.90
12827;DHT22;66927;48.812;9.118;2024-01-30T11:18:33;8.30;99.90
12827;DHT22;66927;48.812;9.118;2024-01-30T11:21:05;8.40;99.90
12827;DHT22;66927;48.812;9.118;2024-01-30T11:23:32;8.40;99.90
12827;DHT22;66927;48.812;9.118;2024-01-30T11:25:58;8.40;99.90
12827;DHT22;66927;48.812;9.118;2024-01-30T11:28:24;8.40;99.90
12827;DHT22;66927;48.812;9.118;2024-01-30T11:31:06;8.50;99.90
12827;DHT22;66927;48.812;9.118;2024-01-30T11:33:37;8.50;99.90
12827;DHT22;66927;48.812;9.118;2024-01-30T11:36:03;8.50;99.90
12827;DHT22;66927;48.812;9.118;2024-01-30T11:38:32;8.50;99.90
12827;DHT22;66927;48.812;9.118;2024-01-30T11:40:58;8.60;99.90
12827;DHT22;66927;48.812;9.118;2024-01-30T11:43:24;8.60;99.90
12827;DHT22;66927;48.812;9.118;2024-01-30T11:45:50;8.60;99.90
12827;DHT22;66927;48.812;9.118;2024-01-30T11:48:16;8.60;99.90
12827;DHT22;66927;48.812;9.118;2024-01-30T11:50:43;8.60;99.90
12827;DHT22;66927;48.812;9.118;2024-01-30T11:53:10;8.70;99.90
12827;DHT22;66927;48.812;9.118;2024-01-30T11:55:36;8.70;99.90
12827;DHT22;66927;48.812;9.118;2024-01-30T11:58:03;8.70;99.90
12827;DHT22;66927;48.812;9.118;2024-01-30T12:00:30;8.70;99.90
12827;DHT22;66927;48.812;9.118;2024-01-30T12:02:56;8.80;99.90
12827;DHT22;66927;48.812;9.118;2024-01-30T12:05:23;8.80;99.90
12827;DHT22;66927;48.812;9.118;2024-01-30T12:07:49;8.80;99.90
12827;DHT22;66927;48.812;9.118;2024-01-30T12:10:15;8.80;99.90
12827;DHT22;66927;48.812;9.118;2024-01-30T12:12:43;8.80;99.90
12827;DHT22;66927;48.812;9.118;2024-01-30T12:15:11;8.80;99.90
12827;DHT22;66927;48.812;9.118;2024-01-30T12:17:36;8.80;99.90
12827;DHT22;66927;48.812;9.118;2024-01-30T12:20:09;8.90;99.90
12827;DHT22;66927;48.812;9.118;2024-01-30T12:22:47;8.90;99.90
12827;DHT22;66927;48.812;9.118;2024-01-30T12:25:18;8.90;99.90
12827;DHT22;66927;48.812;9.118;2024-01-30T12:27:49;9.00;99.90
12827;DHT22;66927;48.812;9.118;2024-01-30T12:30:16;9.00;99.90
12827;DHT22;66927;48.812;9.118;2024-01-30T12:32:44;9.00;99.90
12827;DHT22;66927;48.812;9.118;2024-01-30T12:35:12;9.00;99.90
12827;DHT22;66927;48.812;9.118;2024-01-30T12:37:39;9.10;99.90
12827;DHT22;66927;48.812;9.118;2024-01-30T12:40:08;9.20;99.90
12827;DHT22;66927;48.812;9.118;2024-01-30T12:42:34;9.20;99.90
12827;DHT22;66927;48.812;9.118;2024-01-30T12:45:02;9.30;99.90
12827;DHT22;66927;48.812;9.118;2024-01-30T12:47:27;9.40;99.90
12827;DHT22;66927;48.812;9.118;2024-01-30T12:49:53;9.50;99.90
12827;DHT22;66927;48.812;9.118;2024-01-30T12:52:19;9.70;99.90
12827;DHT22;66927;48.812;9.118;2024-01-30T12:54:46;9.80;99.90
12827;DHT22;66927;48.812;9.118;2024-01-30T12:57:11;10.00;99.90
12827;DHT22;66927;48.812;9.118;2024-01-30T12:59:37;10.10;99.90
12827;DHT22;66927;48.812;9.118;2024-01-30T13:02:06;10.20;99.90
12827;DHT22;66927;48.812;9.118;2024-01-30T13:04:32;10.30;99.90
12827;DHT22;66927;48.812;9.118;2024-01-30T13:06:58;10.40;99.90
12827;DHT22;66927;48.812;9.118;2024-01-30T13:09:26;10.50;99.90
12827;DHT22;66927;48.812;9.118;2024-01-30T13:11:51;10.60;99.90
12827;DHT22;66927;48.812;9.118;2024-01-30T13:14:18;10.70;99.90
12827;DHT22;66927;48.812;9.118;2024-01-30T13:16:44;10.80;99.90
12827;DHT22;66927;48.812;9.118;2024-01-30T13:19:11;10.90;99.90
12827;DHT22;66927;48.812;9.118;2024-01-30T13:21:37;11.10;99.90
12827;DHT22;66927;48.812;9.118;2024-01-30T13:24:04;10.90;99.90
12827;DHT22;66927;48.812;9.118;2024-01-30T13:26:31;10.90;99.90
12827;DHT22;66927;48.812;9.118;2024-01-30T13:28:57;10.80;99.90
12827;DHT22;66927;48.812;9.118;2024-01-30T13:31:23;10.70;99.90
12827;DHT22;66927;48.812;9.118;2024-01-30T13:33:49;10.60;99.90
12827;DHT22;66927;48.812;9.118;2024-01-30T13:36:15;10.60;99.90
12827;DHT22;66927;48.812;9.118;2024-01-30T13:38:42;10.60;99.90
12827;DHT22;66927;48.812;9.118;2024-01-30T13:41:07;10.60;99.90
12827;DHT22;66927;48.812;9.118;2024-01-30T13:43:33;10.60;99.90
12827;DHT22;66927;48.812;9.118;2024-01-30T13:45:59;10.60;99.90
12827;DHT22;66927;48.812;9.118;2024-01-30T13:48:24;10.60;99.90
12827;DHT22;66927;48.812;9.118;2024-01-30T13:50:50;10.60;99.90
12827;DHT22;66927;48.812;9.118;2024-01-30T13:53:16;10.60;99.90
12827;DHT22;66927;48.812;9.118;2024-01-30T13:55:42;10.70;99.90
12827;DHT22;66927;48.812;9.118;2024-01-30T13:58:09;10.70;99.90
12827;DHT22;66927;48.812;9.118;2024-01-30T14:00:37;10.60;99.90
12827;DHT22;66927;48.812;9.118;2024-01-30T14:03:04;10.60;99.90
12827;DHT22;66927;48.812;9.118;2024-01-30T14:05:30;10.70;99.90
12827;DHT22;66927;48.812;9.118;2024-01-30T14:07:58;10.60;99.90
12827;DHT22;66927;48.812;9.118;2024-01-30T14:10:25;10.60;99.90
12827;DHT22;66927;48.812;9.118;2024-01-30T14:12:51;10.60;99.90
12827;DHT22;66927;48.812;9.118;2024-01-30T14:15:17;10.50;99.90
12827;DHT22;66927;48.812;9.118;2024-01-30T14:17:45;10.50;99.90
12827;DHT22;66927;48.812;9.118;2024-01-30T14:20:14;10.50;99.90
12827;DHT22;66927;48.812;9.118;2024-01-30T14:22:39;10.50;99.90
12827;DHT22;66927;48.812;9.118;2024-01-30T14:25:06;10.40;99.90
12827;DHT22;66927;48.812;9.118;2024-01-30T14:27:32;10.40;99.90
12827;DHT22;66927;48.812;9.118;2024-01-30T14:29:58;10.40;99.90
12827;DHT22;66927;48.812;9.118;2024-01-30T14:32:24;10.30;99.90
12827;DHT22;66927;48.812;9.118;2024-01-30T14:34:51;10.30;99.90
12827;DHT22;66927;48.812;9.118;2024-01-30T14:37:18;10.30;99.90
12827;DHT22;66927;48.812;9.118;2024-01-30T14:39:43;10.30;99.90
12827;DHT22;66927;48.812;9.118;2024-01-30T14:42:09;10.30;99.90
12827;DHT22;66927;48.812;9.118;2024-01-30T14:44:35;10.20;99.90
12827;DHT22;66927;48.812;9.118;2024-01-30T14:47:01;10.20;99.90
12827;DHT22;66927;48.812;9.118;2024-01-30T14:49:27;10.20;99.90
12827;DHT22;66927;48.812;9.118;2024-01-30T14:51:53;10.10;99.90
12827;DHT22;66927;48.812;9.118;2024-01-30T14:54:20;10.10;99.90
12827;DHT22;66927;48.812;9.118;2024-01-30T14:56:46;10.10;99.90
12827;DHT22;66927;48.812;9.118;2024-01-30T14:59:12;10.00;99.90
12827;DHT22;66927;48.812;9.118;2024-01-30T15:01:37;10.00;99.90
12827;DHT22;66927;48.812;9.118;2024-01-30T15:04:03;10.00;99.90
12827;DHT22;66927;48.812;9.118;2024-01-30T15:06:29;10.00;99.90
12827;DHT22;66927;48.812;9.118;2024-01-30T15:08:55;10.00;99.90
12827;DHT22;66927;48.812;9.118;2024-01-30T15:11:20;10.00;99.90
12827;DHT22;66927;48.812;9.118;2024-01-30T15:13:47;10.00;99.90
12827;DHT22;66927;48.812;9.118;2024-01-30T15:16:13;10.00;99.90
12827;DHT22;66927;48.812;9.118;2024-01-30T15:18:41;10.00;99.90
12827;DHT22;66927;48.812;9.118;2024-01-30T15:21:06;10.00;99.90
12827;DHT22;66927;48.812;9.118;2024-01-30T15:23:32;9.90;99.90
12827;DHT22;66927;48.812;9.118;2024-01-30T15:26:00;9.90;99.90
12827;DHT22;66927;48.812;9.118;2024-01-30T15:28:36;9.70;99.90
12827;DHT22;66927;48.812;9.118;2024-01-30T15:31:03;9.90;99.90
12827;DHT22;66927;48.812;9.118;2024-01-30T15:33:28;9.90;99.90
12827;DHT22;66927;48.812;9.118;2024-01-30T15:35:54;9.90;99.90
12827;DHT22;66927;48.812;9.118;2024-01-30T15:38:20;9.80;99.90
12827;DHT22;66927;48.812;9.118;2024-01-30T15:40:46;9.80;99.90